Time;durP1;ratioP1;P1;durP2;ratioP2;P2;SDS_P1;SDS_P2;PMS_P1;PMS_P2;Temp;Humidity;BMP_temperature;BMP_pressure;BME280_temperature;BME280_humidity;BME280_pressure;Samples;Min_cycle;Max_cycle;Signal;HPM_P1;HPM_P2
2022/08/24 00:01:22;;;;;;;10.18;4.57;;;23.40;76.20;;;;;;5091903;28;20020;-93
2022/08/24 00:03:48;;;;;;;8.23;4.70;;;23.40;76.40;;;;;;5077661;28;20064;-93
2022/08/24 00:06:19;;;;;;;7.82;4.28;;;23.40;76.60;;;;;;5078503;28;20098;-93
2022/08/24 00:08:46;;;;;;;6.78;3.90;;;23.30;76.70;;;;;;5089911;28;20024;-92
2022/08/24 00:11:12;;;;;;;5.85;3.65;;;23.30;76.80;;;;;;5090810;28;20028;-92
2022/08/24 00:13:38;;;;;;;6.97;3.60;;;23.20;76.80;;;;;;5065514;28;20035;-92
2022/08/24 00:16:06;;;;;;;7.05;4.22;;;23.20;77.00;;;;;;5076259;28;20369;-92
2022/08/24 00:18:32;;;;;;;5.30;3.55;;;23.10;77.10;;;;;;5076823;28;20029;-93
2022/08/24 00:20:58;;;;;;;6.65;3.65;;;23.10;77.20;;;;;;5077077;28;20453;-92
2022/08/24 00:23:24;;;;;;;6.50;4.07;;;23.10;77.40;;;;;;5067824;28;20109;-92
2022/08/24 00:25:50;;;;;;;9.95;3.83;;;23.10;77.50;;;;;;5086753;28;20048;-90
2022/08/24 00:28:16;;;;;;;10.50;4.78;;;23.10;77.60;;;;;;5078133;28;20024;-90
2022/08/24 00:30:42;;;;;;;8.60;4.57;;;23.00;78.30;;;;;;5081009;28;20472;-93
2022/08/24 00:33:08;;;;;;;7.38;4.50;;;23.00;77.90;;;;;;5081557;28;20021;-92
2022/08/24 00:35:34;;;;;;;8.88;4.70;;;23.00;78.00;;;;;;5080280;28;20032;-93
2022/08/24 00:37:59;;;;;;;7.97;5.03;;;22.90;78.10;;;;;;5080360;28;20028;-92
2022/08/24 00:40:38;;;;;;;7.38;5.05;;;22.90;78.30;;;;;;5060071;28;20024;-93
2022/08/24 00:43:05;;;;;;;8.38;4.85;;;22.80;78.50;;;;;;5079427;28;20025;-93
2022/08/24 00:45:36;;;;;;;8.10;4.80;;;22.80;78.70;;;;;;5078298;28;20040;-93
2022/08/24 00:48:11;;;;;;;8.88;4.43;;;22.80;78.90;;;;;;5076302;28;20032;-91
2022/08/24 00:50:40;;;;;;;6.47;4.45;;;22.70;78.90;;;;;;5076243;28;20472;-93
2022/08/24 00:53:12;;;;;;;8.02;4.70;;;22.70;79.00;;;;;;5076512;28;20024;-92
2022/08/24 00:55:44;;;;;;;7.38;4.45;;;22.70;79.20;;;;;;5074835;28;20126;-94
2022/08/24 00:58:20;;;;;;;7.90;4.53;;;22.60;79.30;;;;;;5076259;28;20050;-93
2022/08/24 01:00:52;;;;;;;6.30;4.75;;;22.60;79.40;;;;;;5075818;28;20016;-92
2022/08/24 01:03:18;;;;;;;8.27;4.70;;;22.60;79.50;;;;;;5074354;28;20024;-91
2022/08/24 01:05:44;;;;;;;7.47;4.38;;;22.50;79.50;;;;;;5041074;28;20043;-92
2022/08/24 01:08:11;;;;;;;8.57;4.60;;;22.50;79.70;;;;;;5075862;28;20056;-93
2022/08/24 01:10:42;;;;;;;7.55;4.47;;;22.50;79.90;;;;;;5074764;28;20403;-92
2022/08/24 01:13:10;;;;;;;8.82;4.80;;;22.40;80.00;;;;;;5075854;28;20095;-92
2022/08/24 01:15:40;;;;;;;8.02;5.00;;;22.40;80.20;;;;;;5075562;28;20042;-93
2022/08/24 01:21:30;;;;;;;7.85;5.13;;;22.40;80.50;;;;;;5076505;28;20039;-92
2022/08/24 01:24:03;;;;;;;8.65;5.00;;;22.30;80.80;;;;;;5083412;28;20055;-93
2022/08/24 01:26:39;;;;;;;8.57;5.28;;;22.30;80.80;;;;;;5081273;28;20033;-93
2022/08/24 01:29:12;;;;;;;7.97;5.15;;;22.30;81.10;;;;;;5075074;28;20024;-92
2022/08/24 01:31:38;;;;;;;7.70;4.70;;;22.30;81.30;;;;;;5075656;28;20104;-93
2022/08/24 01:34:04;;;;;;;9.57;5.38;;;22.20;81.40;;;;;;5075701;28;20060;-92
2022/08/24 01:36:47;;;;;;;8.77;5.28;;;22.20;81.50;;;;;;5074725;28;20020;-92
2022/08/24 01:39:31;;;;;;;8.23;5.63;;;22.10;81.60;;;;;;5077124;28;20056;-93
2022/08/24 01:41:58;;;;;;;8.82;5.93;;;22.20;81.80;;;;;;5076415;28;20039;-91
2022/08/24 01:44:25;;;;;;;8.20;5.88;;;22.10;81.80;;;;;;5075612;28;20045;-93
2022/08/24 01:46:53;;;;;;;8.75;5.53;;;22.10;81.90;;;;;;5073903;28;20473;-92
2022/08/24 01:49:27;;;;;;;9.63;5.57;;;22.10;82.10;;;;;;5073622;28;20021;-92
2022/08/24 01:51:52;;;;;;;9.05;5.47;;;22.10;82.30;;;;;;5067881;28;20029;-91
2022/08/24 01:54:18;;;;;;;9.98;5.93;;;22.00;82.30;;;;;;5073648;28;20105;-91
2022/08/24 01:56:44;;;;;;;10.57;4.75;;;22.00;82.50;;;;;;5074249;28;20052;-92
2022/08/24 01:59:11;;;;;;;6.90;5.20;;;22.00;82.70;;;;;;5073376;28;20030;-91
2022/08/24 02:01:41;;;;;;;10.63;5.72;;;22.00;83.50;;;;;;5075056;28;20032;-93
2022/08/24 02:04:07;;;;;;;8.80;5.45;;;22.00;83.00;;;;;;5074922;28;20466;-92
2022/08/24 02:06:33;;;;;;;8.68;5.97;;;21.90;83.10;;;;;;5074387;28;20021;-92
2022/08/24 02:08:59;;;;;;;8.20;5.30;;;21.90;83.20;;;;;;5073593;28;20027;-93
2022/08/24 02:11:26;;;;;;;7.35;5.65;;;21.90;83.30;;;;;;5073558;28;20025;-93
2022/08/24 02:13:52;;;;;;;8.07;5.63;;;21.90;83.40;;;;;;5073808;28;20036;-93
2022/08/24 02:16:17;;;;;;;10.43;5.88;;;21.90;83.50;;;;;;5073600;28;20080;-93
2022/08/24 02:18:43;;;;;;;7.80;6.03;;;21.90;83.70;;;;;;5073273;28;20469;-92
2022/08/24 02:21:11;;;;;;;7.85;5.72;;;21.80;83.70;;;;;;5073455;28;20021;-92
2022/08/24 02:23:38;;;;;;;8.35;5.78;;;21.80;83.80;;;;;;5073610;28;20024;-93
2022/08/24 02:26:06;;;;;;;9.88;6.55;;;21.80;83.90;;;;;;5073545;28;20039;-93
2022/08/24 02:28:33;;;;;;;10.88;5.15;;;21.70;84.10;;;;;;5073077;28;20017;-93
2022/08/24 02:31:00;;;;;;;10.70;6.03;;;21.70;84.30;;;;;;5073354;28;20128;-91
2022/08/24 02:33:25;;;;;;;9.15;6.25;;;21.70;84.50;;;;;;5074344;28;20090;-91
2022/08/24 02:35:52;;;;;;;10.45;5.72;;;21.70;84.60;;;;;;5073462;28;20484;-93
2022/08/24 02:38:17;;;;;;;7.75;4.97;;;21.60;84.60;;;;;;5073961;28;20116;-92
2022/08/24 02:40:43;;;;;;;11.82;5.50;;;21.60;84.70;;;;;;5072825;28;20448;-93
2022/08/24 02:43:09;;;;;;;10.57;5.75;;;21.60;84.80;;;;;;5074679;28;20460;-92
2022/08/24 02:45:44;;;;;;;8.18;6.07;;;21.60;84.90;;;;;;5073153;28;20044;-93
2022/08/24 02:48:11;;;;;;;10.73;5.93;;;21.60;85.10;;;;;;5074450;28;20422;-93
2022/08/24 02:50:42;;;;;;;8.65;5.65;;;21.60;85.10;;;;;;5074573;28;20028;-93
2022/08/24 02:53:09;;;;;;;7.57;5.15;;;21.60;85.30;;;;;;5073251;28;20118;-92
2022/08/24 02:55:38;;;;;;;10.07;5.63;;;21.50;85.40;;;;;;5074078;28;20024;-92
2022/08/24 02:58:04;;;;;;;9.23;6.43;;;21.50;85.50;;;;;;5073103;28;20037;-93
2022/08/24 03:00:29;;;;;;;7.72;5.75;;;21.50;85.60;;;;;;5056536;28;20091;-93
2022/08/24 03:02:55;;;;;;;10.20;5.95;;;21.50;86.30;;;;;;5074933;28;20032;-94
2022/08/24 03:05:22;;;;;;;7.47;5.32;;;21.50;85.80;;;;;;5074999;28;20495;-92
2022/08/24 03:07:47;;;;;;;9.70;5.40;;;21.50;85.90;;;;;;5057317;28;20055;-91
2022/08/24 03:10:13;;;;;;;7.15;5.03;;;21.50;86.00;;;;;;5075237;28;20036;-94
2022/08/24 03:12:39;;;;;;;8.73;6.03;;;21.40;86.00;;;;;;5075556;28;20024;-93
2022/08/24 03:15:09;;;;;;;8.70;5.63;;;21.40;86.20;;;;;;5075613;28;20468;-92
2022/08/24 03:17:35;;;;;;;9.75;6.10;;;21.40;86.30;;;;;;5056984;28;20025;-93
2022/08/24 03:20:03;;;;;;;11.65;7.15;;;21.40;86.40;;;;;;5075822;28;20471;-93
2022/08/24 03:22:29;;;;;;;10.70;6.88;;;21.40;86.50;;;;;;5089389;28;20009;-92
2022/08/24 03:24:54;;;;;;;7.75;6.25;;;21.40;86.70;;;;;;5090034;28;20052;-90
2022/08/24 03:27:20;;;;;;;11.65;6.47;;;21.40;86.90;;;;;;5091094;28;20036;-91
2022/08/24 03:29:46;;;;;;;9.05;6.07;;;21.40;87.60;;;;;;5090887;28;20046;-92
2022/08/24 03:32:12;;;;;;;9.20;6.32;;;21.30;87.10;;;;;;5089552;28;20029;-92
2022/08/24 03:34:38;;;;;;;9.07;6.70;;;21.30;87.40;;;;;;5087231;28;20088;-93
2022/08/24 03:37:03;;;;;;;8.77;6.32;;;21.30;87.60;;;;;;5059706;28;20448;-93
2022/08/24 03:39:29;;;;;;;8.77;5.80;;;21.30;87.80;;;;;;5079654;28;20892;-92
2022/08/24 03:41:55;;;;;;;8.52;6.07;;;21.30;87.80;;;;;;5088641;28;20039;-91
2022/08/24 03:44:20;;;;;;;10.05;6.47;;;21.30;88.00;;;;;;5092610;28;20115;-90
2022/08/24 03:46:47;;;;;;;8.65;6.38;;;21.30;88.00;;;;;;5094698;28;20042;-91
2022/08/24 03:49:13;;;;;;;9.95;5.95;;;21.30;88.10;;;;;;5077605;28;20021;-92
2022/08/24 03:51:39;;;;;;;14.00;7.05;;;21.20;88.10;;;;;;5076752;28;20036;-92
2022/08/24 03:54:07;;;;;;;8.60;6.43;;;21.20;88.10;;;;;;5092548;28;20036;-90
2022/08/24 03:56:34;;;;;;;8.70;5.57;;;21.20;88.20;;;;;;5080783;28;20149;-91
2022/08/24 03:58:59;;;;;;;7.90;5.60;;;21.20;88.30;;;;;;5078820;28;20035;-93
2022/08/24 04:01:25;;;;;;;8.82;6.57;;;21.20;88.30;;;;;;5060948;28;20029;-93
2022/08/24 04:03:52;;;;;;;8.45;5.63;;;21.10;88.30;;;;;;5077071;28;20036;-92
2022/08/24 04:06:19;;;;;;;7.97;6.68;;;21.10;88.40;;;;;;5060108;28;20021;-93
2022/08/24 04:08:46;;;;;;;9.95;6.70;;;21.10;88.50;;;;;;5078444;28;20448;-93
2022/08/24 04:11:14;;;;;;;10.45;7.35;;;21.00;88.60;;;;;;5087845;28;20028;-89
2022/08/24 04:13:40;;;;;;;9.10;6.95;;;21.00;88.80;;;;;;5087131;28;20039;-93
2022/08/24 04:16:12;;;;;;;11.88;7.78;;;21.00;89.00;;;;;;5060522;28;20028;-93
2022/08/24 04:18:38;;;;;;;12.85;8.07;;;21.00;89.10;;;;;;5076363;28;20028;-93
2022/08/24 04:21:04;;;;;;;10.43;8.32;;;20.90;89.80;;;;;;5075626;28;20503;-93
2022/08/24 04:23:32;;;;;;;8.35;6.72;;;20.90;89.30;;;;;;5059229;28;20021;-92
2022/08/24 04:26:03;;;;;;;8.68;6.90;;;20.90;89.60;;;;;;5075235;28;20033;-93
2022/08/24 04:28:29;;;;;;;8.95;5.65;;;20.90;89.80;;;;;;5075444;28;20070;-93
2022/08/24 04:30:56;;;;;;;9.80;7.10;;;20.90;89.90;;;;;;5076580;28;20021;-93
2022/08/24 04:33:22;;;;;;;8.38;6.05;;;20.90;90.00;;;;;;5076858;28;20021;-93
2022/08/24 04:35:49;;;;;;;10.88;6.60;;;20.90;90.00;;;;;;5075349;28;20021;-92
2022/08/24 04:38:18;;;;;;;9.93;6.57;;;20.80;90.10;;;;;;5076497;28;20036;-91
2022/08/24 04:40:45;;;;;;;8.30;6.00;;;20.80;90.10;;;;;;5076685;28;20037;-94
2022/08/24 04:43:13;;;;;;;8.68;6.85;;;20.80;90.20;;;;;;5075197;28;20031;-94
2022/08/24 04:45:45;;;;;;;11.07;6.63;;;20.80;90.20;;;;;;5075721;28;20553;-92
2022/08/24 04:48:12;;;;;;;11.05;7.22;;;20.80;90.30;;;;;;5076271;28;20060;-93
2022/08/24 04:50:40;;;;;;;11.15;8.73;;;20.80;90.30;;;;;;5075022;28;20021;-92
2022/08/24 04:53:06;;;;;;;11.52;8.02;;;20.80;90.30;;;;;;5075907;28;20020;-90
2022/08/24 04:55:40;;;;;;;9.70;7.95;;;20.80;90.40;;;;;;5061123;28;20116;-93
2022/08/24 04:58:06;;;;;;;10.75;7.88;;;20.80;90.40;;;;;;5080243;28;20447;-93
2022/08/24 05:00:32;;;;;;;10.80;7.63;;;20.80;90.40;;;;;;5066920;28;20028;-92
2022/08/24 05:02:57;;;;;;;11.55;8.50;;;20.70;90.40;;;;;;5081403;28;20021;-94
2022/08/24 05:05:23;;;;;;;13.68;8.68;;;20.70;90.50;;;;;;5077859;28;20052;-93
2022/08/24 05:07:49;;;;;;;11.88;9.27;;;20.70;90.60;;;;;;5080005;28;20105;-92
2022/08/24 05:10:14;;;;;;;10.65;8.50;;;20.70;90.60;;;;;;5079317;28;20035;-93
2022/08/24 05:12:40;;;;;;;10.95;8.48;;;20.70;90.70;;;;;;5079433;28;20033;-92
2022/08/24 05:15:06;;;;;;;12.30;9.75;;;20.70;90.70;;;;;;5080372;28;20060;-93
2022/08/24 05:17:32;;;;;;;14.43;10.35;;;20.80;90.80;;;;;;5080444;28;20029;-92
2022/08/24 05:19:58;;;;;;;13.48;9.93;;;20.80;90.90;;;;;;5079406;28;20078;-93
2022/08/24 05:22:24;;;;;;;15.90;9.75;;;20.80;90.90;;;;;;5078907;28;20029;-92
2022/08/24 05:24:49;;;;;;;10.88;8.88;;;20.80;91.00;;;;;;5081437;28;20035;-91
2022/08/24 05:27:17;;;;;;;12.85;9.23;;;20.80;91.00;;;;;;5080793;28;20021;-91
2022/08/24 05:29:43;;;;;;;11.63;8.68;;;20.80;91.00;;;;;;5064457;28;20029;-93
2022/08/24 05:32:10;;;;;;;11.57;8.55;;;20.80;91.00;;;;;;5081060;28;20064;-93
2022/08/24 05:34:36;;;;;;;12.55;8.50;;;20.90;91.10;;;;;;5080116;28;20495;-93
2022/08/24 05:37:01;;;;;;;11.20;8.85;;;20.90;91.10;;;;;;5085016;28;20032;-88
2022/08/24 05:39:29;;;;;;;10.57;8.38;;;20.90;91.10;;;;;;5089226;28;20029;-93
2022/08/24 05:41:55;;;;;;;10.63;8.52;;;20.90;91.10;;;;;;5091863;28;20024;-92
2022/08/24 05:44:22;;;;;;;11.55;8.70;;;20.90;91.10;;;;;;5094620;28;20090;-92
2022/08/24 05:46:48;;;;;;;14.52;9.05;;;21.00;91.20;;;;;;5072117;28;20029;-90
2022/08/24 05:49:13;;;;;;;11.98;9.05;;;21.10;91.20;;;;;;5084210;28;20035;-92
2022/08/24 05:51:41;;;;;;;12.20;9.07;;;21.10;91.20;;;;;;5080429;28;20070;-92
2022/08/24 05:54:08;;;;;;;12.82;8.85;;;21.10;91.20;;;;;;5078859;28;20388;-93
2022/08/24 05:56:34;;;;;;;11.63;9.18;;;21.10;91.30;;;;;;5078217;28;20529;-90
2022/08/24 05:59:00;;;;;;;13.40;8.50;;;21.10;91.40;;;;;;5078558;28;20488;-91
2022/08/24 06:01:26;;;;;;;15.57;8.93;;;21.20;91.40;;;;;;5081443;28;20476;-93
2022/08/24 06:03:54;;;;;;;16.13;9.00;;;21.20;91.40;;;;;;5078276;28;20119;-93
2022/08/24 06:06:21;;;;;;;18.95;8.82;;;21.30;91.40;;;;;;5061631;28;20024;-90
2022/08/24 06:08:49;;;;;;;17.20;8.35;;;21.30;91.40;;;;;;5077972;28;20025;-92
2022/08/24 06:11:36;;;;;;;13.55;8.88;;;21.40;91.50;;;;;;5076973;28;20021;-93
2022/08/24 06:14:08;;;;;;;11.48;8.88;;;21.40;91.60;;;;;;5082202;28;20028;-93
2022/08/24 06:16:35;;;;;;;15.02;9.40;;;21.40;91.50;;;;;;5079827;28;20021;-93
2022/08/24 06:19:02;;;;;;;13.75;9.70;;;21.50;91.50;;;;;;5078412;28;20059;-93
2022/08/24 06:21:30;;;;;;;13.05;10.23;;;21.50;91.60;;;;;;5080476;28;20048;-93
2022/08/24 06:23:56;;;;;;;11.82;10.43;;;21.60;91.60;;;;;;5078443;28;20041;-93
2022/08/24 06:29:07;;;;;;;14.23;10.75;;;21.60;91.60;;;;;;5078926;28;20138;-93
2022/08/24 06:31:39;;;;;;;15.95;10.43;;;21.70;91.50;;;;;;5078165;28;20023;-93
2022/08/24 06:34:06;;;;;;;14.27;12.07;;;21.80;91.50;;;;;;5074138;28;20498;-92
2022/08/24 06:36:32;;;;;;;13.13;10.48;;;21.80;91.50;;;;;;5075863;28;20021;-92
2022/08/24 06:38:57;;;;;;;14.68;9.68;;;21.80;91.50;;;;;;5077045;28;20146;-92
2022/08/24 06:41:24;;;;;;;13.75;11.25;;;21.80;91.50;;;;;;5078855;28;20503;-93
2022/08/24 06:43:50;;;;;;;14.07;11.65;;;21.80;91.40;;;;;;5065618;28;20032;-92
2022/08/24 06:46:15;;;;;;;16.13;11.70;;;21.90;91.50;;;;;;5084855;28;20021;-90
2022/08/24 06:48:41;;;;;;;13.98;10.45;;;22.00;91.40;;;;;;5080897;28;20392;-93
2022/08/24 06:51:10;;;;;;;15.18;11.32;;;22.00;91.40;;;;;;5075380;28;20138;-91
2022/08/24 06:53:36;;;;;;;14.90;11.40;;;22.00;91.30;;;;;;5074660;28;20027;-88
2022/08/24 06:56:03;;;;;;;16.73;12.85;;;22.00;91.30;;;;;;5074208;28;20025;-91
2022/08/24 06:58:29;;;;;;;15.32;11.10;;;22.10;91.30;;;;;;5073385;28;20055;-93
2022/08/24 07:00:55;;;;;;;16.58;11.65;;;22.10;91.30;;;;;;5056661;28;20041;-93
2022/08/24 07:03:22;;;;;;;14.73;11.80;;;22.10;91.30;;;;;;5074629;28;20060;-92
2022/08/24 07:05:56;;;;;;;13.98;11.20;;;22.20;91.20;;;;;;5074053;28;20044;-91
2022/08/24 07:08:22;;;;;;;13.45;11.82;;;22.20;91.20;;;;;;5074485;28;20033;-93
2022/08/24 07:10:48;;;;;;;14.63;11.02;;;22.30;91.10;;;;;;5075126;28;20043;-93
2022/08/24 07:13:14;;;;;;;14.52;10.15;;;22.30;91.00;;;;;;5073730;28;20157;-93
2022/08/24 07:15:42;;;;;;;15.27;12.10;;;22.40;90.90;;;;;;5080136;28;20016;-92
2022/08/24 07:18:12;;;;;;;10.43;8.88;;;22.50;90.90;;;;;;5084524;28;20099;-93
2022/08/24 07:20:41;;;;;;;12.73;9.15;;;22.50;90.80;;;;;;5074007;28;20055;-92
2022/08/24 07:23:07;;;;;;;14.32;9.60;;;22.50;90.70;;;;;;5073762;28;20042;-93
2022/08/24 07:25:33;;;;;;;12.18;9.23;;;22.60;90.60;;;;;;5073034;28;20424;-93
2022/08/24 07:28:00;;;;;;;15.73;11.50;;;22.60;90.60;;;;;;5075815;28;20082;-89
2022/08/24 07:30:29;;;;;;;14.70;10.43;;;22.70;90.60;;;;;;5077880;28;20020;-92
2022/08/24 07:32:56;;;;;;;11.93;9.30;;;22.70;90.40;;;;;;5083738;28;20035;-91
2022/08/24 07:35:22;;;;;;;14.38;9.68;;;22.80;90.40;;;;;;5084355;28;20460;-92
2022/08/24 07:37:49;;;;;;;13.27;8.75;;;22.80;90.30;;;;;;5064964;28;20032;-93
2022/08/24 07:40:15;;;;;;;13.80;9.45;;;22.80;90.10;;;;;;5082157;28;20044;-93
2022/08/24 07:42:41;;;;;;;12.85;9.20;;;22.90;90.10;;;;;;5079724;28;20108;-93
2022/08/24 07:45:07;;;;;;;10.48;7.28;;;23.00;90.00;;;;;;5078635;28;20071;-93
2022/08/24 07:47:32;;;;;;;11.88;8.80;;;23.00;89.90;;;;;;5077703;28;20032;-93
2022/08/24 07:49:58;;;;;;;12.88;8.95;;;23.00;89.60;;;;;;5076669;28;20024;-93
2022/08/24 07:52:24;;;;;;;10.15;7.72;;;23.10;89.40;;;;;;5076145;28;20107;-93
2022/08/24 07:54:49;;;;;;;10.63;7.40;;;23.20;89.20;;;;;;5059505;28;20054;-93
2022/08/24 07:57:15;;;;;;;10.20;6.95;;;23.20;88.90;;;;;;5076408;28;20049;-92
2022/08/24 07:59:41;;;;;;;9.52;6.53;;;23.30;88.70;;;;;;5076627;28;20036;-93
2022/08/24 08:02:09;;;;;;;9.32;6.57;;;23.30;88.40;;;;;;5059564;28;20032;-93
2022/08/24 08:04:35;;;;;;;11.73;7.45;;;23.40;88.20;;;;;;5076424;28;20040;-93
2022/08/24 08:07:01;;;;;;;11.30;7.53;;;23.50;88.00;;;;;;5076986;28;20029;-91
2022/08/24 08:09:27;;;;;;;9.32;5.88;;;23.50;87.80;;;;;;5077206;28;20060;-93
2022/08/24 08:11:52;;;;;;;9.05;5.53;;;23.60;87.50;;;;;;5076358;28;20027;-92
2022/08/24 08:14:18;;;;;;;10.35;4.88;;;23.60;87.20;;;;;;5077072;28;20112;-93
2022/08/24 08:16:44;;;;;;;8.73;4.75;;;23.70;86.80;;;;;;5076528;28;20036;-93
2022/08/24 08:19:10;;;;;;;9.70;5.88;;;23.80;86.50;;;;;;5060606;28;20032;-92
2022/08/24 08:24:28;;;;;;;8.02;5.10;;;23.80;85.40;;;;;;5077286;28;20059;-93
2022/08/24 08:26:56;;;;;;;8.20;5.38;;;23.90;85.00;;;;;;5078658;28;20040;-93
2022/08/24 08:29:23;;;;;;;10.30;5.28;;;24.00;84.70;;;;;;5080339;28;20031;-91
2022/08/24 08:31:50;;;;;;;7.15;3.85;;;24.00;84.40;;;;;;5062452;28;20488;-93
2022/08/24 08:34:16;;;;;;;7.53;4.50;;;24.10;84.10;;;;;;5082208;28;20479;-93
2022/08/24 08:36:42;;;;;;;6.72;3.78;;;24.20;83.70;;;;;;5083677;28;20024;-93
2022/08/24 08:39:10;;;;;;;6.65;3.45;;;24.20;83.20;;;;;;5085100;28;20024;-92
2022/08/24 08:41:41;;;;;;;7.78;3.78;;;24.30;82.80;;;;;;5087286;28;20020;-94
2022/08/24 08:44:32;;;;;;;10.02;3.40;;;24.40;82.40;;;;;;5088822;28;20039;-90
2022/08/24 08:47:32;;;;;;;6.03;2.95;;;24.50;81.90;;;;;;5086706;28;20021;-92
2022/08/24 08:50:07;;;;;;;5.47;2.58;;;24.50;81.30;;;;;;5085794;28;20029;-94
2022/08/24 08:52:32;;;;;;;8.00;2.83;;;24.60;81.00;;;;;;5086624;28;20060;-93
2022/08/24 08:55:04;;;;;;;5.07;3.05;;;24.60;80.40;;;;;;5088175;28;20024;-90
2022/08/24 08:57:46;;;;;;;5.10;1.80;;;24.70;79.90;;;;;;5092267;28;20048;-94
2022/08/24 09:00:26;;;;;;;4.53;2.28;;;24.80;79.50;;;;;;5085843;28;20067;-94
2022/08/24 09:03:20;;;;;;;3.55;2.53;;;24.80;79.00;;;;;;5089184;28;20460;-90
2022/08/24 09:05:54;;;;;;;3.72;1.52;;;24.90;78.40;;;;;;5082304;28;20036;-92
2022/08/24 09:08:48;;;;;;;5.53;1.45;;;25.00;78.10;;;;;;5078948;28;20120;-94
2022/08/24 09:11:36;;;;;;;5.75;1.88;;;25.10;77.50;;;;;;5079681;28;20032;-93
2022/08/24 09:14:24;;;;;;;3.65;1.63;;;25.20;77.10;;;;;;5079402;28;20039;-94
2022/08/24 09:17:14;;;;;;;4.72;1.73;;;25.20;76.60;;;;;;5080575;28;20039;-93
2022/08/24 09:19:51;;;;;;;3.55;1.38;;;25.30;76.10;;;;;;5078594;28;20052;-89
2022/08/24 09:22:19;;;;;;;5.32;1.67;;;25.40;76.00;;;;;;5076748;28;20024;-92
2022/08/24 09:24:54;;;;;;;5.00;1.60;;;25.40;75.70;;;;;;5075961;28;20119;-91
2022/08/24 09:27:38;;;;;;;4.30;1.30;;;25.50;75.40;;;;;;5075367;28;20035;-91
2022/08/24 09:30:17;;;;;;;4.53;1.35;;;25.60;75.10;;;;;;5076530;28;20032;-91
2022/08/24 09:33:04;;;;;;;7.18;1.30;;;25.70;74.80;;;;;;5074501;28;20028;-91
2022/08/24 09:35:48;;;;;;;6.00;1.38;;;25.80;74.40;;;;;;5074001;28;20025;-91
2022/08/24 09:38:14;;;;;;;2.63;1.08;;;25.90;74.20;;;;;;5074789;28;20028;-92
2022/08/24 09:41:04;;;;;;;2.95;1.13;;;25.90;73.60;;;;;;5074158;28;20025;-91
2022/08/24 09:43:29;;;;;;;2.97;0.90;;;26.00;72.70;;;;;;5076080;28;20418;-89
2022/08/24 09:46:14;;;;;;;3.25;1.23;;;26.10;72.60;;;;;;5077027;28;20033;-90
2022/08/24 09:49:21;;;;;;;4.78;1.08;;;26.20;72.00;;;;;;5076904;28;20033;-89
2022/08/24 09:52:15;;;;;;;2.05;1.00;;;26.30;71.70;;;;;;5069609;28;20042;-87
2022/08/24 09:54:56;;;;;;;2.35;0.80;;;26.30;71.50;;;;;;5075939;28;20029;-90
2022/08/24 09:57:51;;;;;;;2.45;1.00;;;26.40;71.30;;;;;;5078362;28;20073;-90
2022/08/24 10:00:28;;;;;;;4.28;0.73;;;26.50;70.90;;;;;;5074688;28;20479;-89
2022/08/24 10:03:09;;;;;;;4.00;0.73;;;26.60;70.70;;;;;;5075400;28;20024;-91
2022/08/24 10:05:50;;;;;;;2.72;0.80;;;26.70;70.10;;;;;;5074663;28;20059;-89
2022/08/24 10:08:46;;;;;;;1.77;0.60;;;26.80;69.40;;;;;;5076701;28;20036;-93
2022/08/24 10:11:21;;;;;;;1.95;0.70;;;26.80;68.60;;;;;;5075192;28;20480;-88
2022/08/24 10:14:00;;;;;;;2.00;0.90;;;26.90;68.40;;;;;;5073986;28;20115;-90
2022/08/24 10:16:50;;;;;;;2.17;0.60;;;27.10;68.10;;;;;;5075890;28;20082;-87
2022/08/24 10:19:22;;;;;;;1.55;0.70;;;27.20;67.80;;;;;;5078270;28;20028;-88
2022/08/24 10:22:01;;;;;;;2.95;0.70;;;27.40;67.50;;;;;;5076938;28;20025;-90
2022/08/24 10:24:33;;;;;;;2.92;0.60;;;27.50;66.90;;;;;;5075204;28;20071;-91
2022/08/24 10:27:19;;;;;;;4.70;0.70;;;27.70;66.60;;;;;;5074262;28;20020;-92
2022/08/24 10:30:20;;;;;;;0.88;0.50;;;27.90;66.10;;;;;;5074837;28;20028;-89
2022/08/24 10:32:59;;;;;;;1.77;0.75;;;28.10;65.20;;;;;;5076391;28;20028;-88
2022/08/24 10:35:57;;;;;;;1.95;0.50;;;28.40;65.00;;;;;;5076437;28;20174;-89
2022/08/24 10:41:58;;;;;;;1.92;0.70;;;28.80;63.90;;;;;;5075117;28;20060;-89
2022/08/24 10:45:05;;;;;;;1.20;0.60;;;29.00;62.90;;;;;;5075506;28;20120;-90
2022/08/24 10:47:35;;;;;;;2.58;0.60;;;29.30;62.10;;;;;;5052857;28;20037;-91
2022/08/24 10:50:07;;;;;;;1.65;0.50;;;29.50;62.20;;;;;;5073715;28;20055;-89
2022/08/24 10:52:55;;;;;;;3.03;0.70;;;29.60;61.50;;;;;;5072799;28;20021;-89
2022/08/24 10:55:24;;;;;;;2.00;0.60;;;29.90;61.00;;;;;;5073763;28;20028;-88
2022/08/24 10:58:14;;;;;;;1.05;0.47;;;30.10;60.40;;;;;;5036168;28;1088250;-89
2022/08/24 11:00:41;;;;;;;2.50;0.60;;;30.20;59.50;;;;;;5073455;28;20036;-91
2022/08/24 11:03:08;;;;;;;1.45;0.60;;;30.50;59.30;;;;;;5058782;28;20055;-90
2022/08/24 11:05:41;;;;;;;2.42;0.82;;;30.70;58.90;;;;;;5078363;28;20090;-90
2022/08/24 11:08:07;;;;;;;;;;;30.90;58.40;;;;;;5079108;28;20033;-90
2022/08/24 11:10:36;;;;;;;1.85;0.55;;;31.10;58.40;;;;;;5077293;28;19904;-89
2022/08/24 11:13:25;;;;;;;1.52;0.60;;;31.30;58.40;;;;;;5078711;28;20112;-91
2022/08/24 11:15:55;;;;;;;1.40;0.60;;;31.50;57.00;;;;;;5077698;28;20016;-92
2022/08/24 11:18:21;;;;;;;1.80;0.70;;;31.70;57.00;;;;;;5076883;28;20039;-91
2022/08/24 11:20:50;;;;;;;5.05;0.60;;;31.90;56.50;;;;;;5060303;28;20522;-90
2022/08/24 11:23:22;;;;;;;1.83;0.55;;;32.10;56.00;;;;;;5077963;28;20021;-90
2022/08/24 11:26:12;;;;;;;2.03;0.60;;;32.40;55.40;;;;;;5076541;28;20032;-90
2022/08/24 11:28:39;;;;;;;1.10;0.60;;;32.70;54.40;;;;;;5076494;28;20077;-90
2022/08/24 11:31:18;;;;;;;1.60;0.60;;;33.00;54.40;;;;;;5076767;28;20025;-90
2022/08/24 11:33:51;;;;;;;1.90;0.60;;;33.30;53.20;;;;;;5078003;28;20530;-91
2022/08/24 11:36:20;;;;;;;1.38;0.50;;;33.50;52.90;;;;;;5079692;28;20499;-90
2022/08/24 11:38:46;;;;;;;1.65;0.50;;;33.70;52.50;;;;;;5078418;28;20027;-88
2022/08/24 11:41:18;;;;;;;1.75;0.50;;;33.90;52.10;;;;;;5083430;28;20017;-89
2022/08/24 11:43:59;;;;;;;3.42;0.65;;;34.00;51.40;;;;;;5084602;28;20111;-91
2022/08/24 11:46:36;;;;;;;1.50;0.47;;;34.20;51.10;;;;;;5085928;28;20066;-90
2022/08/24 11:49:15;;;;;;;2.15;0.70;;;34.20;50.30;;;;;;5090834;28;20024;-90
2022/08/24 11:51:53;;;;;;;1.10;0.75;;;34.20;50.30;;;;;;5092482;28;20049;-88
2022/08/24 11:54:33;;;;;;;4.82;0.70;;;34.20;50.10;;;;;;5086394;28;20012;-89
2022/08/24 11:57:25;;;;;;;1.58;0.50;;;34.10;49.60;;;;;;5084172;28;20048;-88
2022/08/24 12:00:07;;;;;;;1.67;0.35;;;34.00;49.30;;;;;;5085591;28;20032;-89
2022/08/24 12:02:54;;;;;;;2.00;0.50;;;33.90;49.70;;;;;;5086937;28;20024;-91
2022/08/24 12:05:38;;;;;;;1.67;0.50;;;33.80;50.20;;;;;;5089278;28;20036;-88
2022/08/24 12:08:07;;;;;;;2.45;0.50;;;33.80;50.40;;;;;;5089072;28;20021;-89
2022/08/24 12:11:14;;;;;;;5.03;0.60;;;33.80;50.50;;;;;;5084085;28;20020;-91
2022/08/24 12:13:52;;;;;;;2.08;0.60;;;33.90;50.20;;;;;;5086288;28;20029;-88
2022/08/24 12:16:32;;;;;;;0.77;0.40;;;33.90;49.90;;;;;;5084157;28;20089;-89
2022/08/24 12:19:07;;;;;;;1.58;0.50;;;33.90;49.70;;;;;;5084447;28;20086;-90
2022/08/24 12:21:37;;;;;;;2.67;0.60;;;34.00;49.90;;;;;;5078986;28;20021;-89
2022/08/24 12:24:11;;;;;;;3.08;0.60;;;34.20;50.20;;;;;;5078502;28;20036;-90
2022/08/24 12:26:42;;;;;;;3.17;0.57;;;34.20;50.00;;;;;;5077479;28;20116;-90
2022/08/24 12:29:37;;;;;;;2.10;0.70;;;34.30;50.00;;;;;;5081917;28;20779;-90
2022/08/24 12:32:20;;;;;;;2.20;0.93;;;34.40;49.80;;;;;;5073372;28;20395;-89
2022/08/24 12:34:56;;;;;;;2.55;0.63;;;34.30;49.90;;;;;;5077089;28;20025;-90
2022/08/24 12:37:51;;;;;;;3.53;0.63;;;34.30;50.00;;;;;;5077108;28;20113;-90
2022/08/24 12:40:25;;;;;;;2.13;0.55;;;34.20;49.60;;;;;;5075100;28;20043;-90
2022/08/24 12:42:54;;;;;;;2.80;0.90;;;34.20;50.20;;;;;;5076261;28;20020;-90
2022/08/24 12:45:22;;;;;;;2.03;0.68;;;34.10;50.80;;;;;;5076291;28;20079;-90
2022/08/24 12:47:57;;;;;;;3.20;0.70;;;34.00;51.00;;;;;;5076625;28;20070;-89
2022/08/24 12:50:41;;;;;;;2.42;0.80;;;34.00;51.10;;;;;;5074912;28;20035;-90
2022/08/24 12:53:35;;;;;;;2.40;0.68;;;34.00;50.50;;;;;;5076074;28;20066;-89
2022/08/24 12:56:06;;;;;;;2.47;0.70;;;33.90;49.70;;;;;;5074313;28;20487;-89
2022/08/24 12:58:59;;;;;;;2.00;0.70;;;33.90;49.60;;;;;;5075445;28;20045;-90
2022/08/24 13:01:32;;;;;;;2.85;0.80;;;34.00;49.30;;;;;;5074401;28;20032;-90
2022/08/24 13:04:15;;;;;;;5.03;0.60;;;34.20;49.30;;;;;;5075619;28;20032;-90
2022/08/24 13:06:49;;;;;;;3.20;0.80;;;34.50;48.60;;;;;;5074516;28;20109;-90
2022/08/24 13:09:30;;;;;;;3.00;0.50;;;34.90;48.70;;;;;;5074352;28;20028;-89
2022/08/24 13:11:58;;;;;;;2.13;0.60;;;35.40;48.00;;;;;;5074689;28;20060;-89
2022/08/24 13:14:27;;;;;;;1.83;0.73;;;35.80;47.90;;;;;;5074037;28;20021;-89
2022/08/24 13:16:56;;;;;;;2.10;0.70;;;36.10;47.30;;;;;;5075112;28;20032;-89